Terminal Aerodrome Forecast
Issued by NWS Missoula, MT

Home | Current Version | Previous Version | Text Only | Print | Product List | Glossary On
Versions: 1 2 3 4 5 6 7 8 9 10 11 12 13 14 15 16 17 18
000
FTUS45 KMSO 162320
TAFGPI
TAF
KGPI 162320Z 1700/1724 08003KT 6SM -SN BR SCT026 SCT045 OVC060
     FM170400 00000KT 3SM BR FEW006 FEW060
     FM170800 00000KT P6SM VCFG SCT010 BKN040
     FM171700 VRB03KT 6SM -SN BKN020 OVC035=

USA.gov is the U.S. government's official web portal to all federal, state and local government web resources and services.